Decoded Metar for CYXS (PRINCE GEORGE in BC, CANADA) (IATA:YXS) | Meteo·Mobile Aviation Weather
aviador You're here:

CYXS Decoded Metar

PRINCE GEORGE in BC, CANADA
Report Time2019-10-18 14:00:00
UTC Time2019-10-18 14:37:25
Flight Rules vfr VFR
Wind180° at 07 kt
W.Decomp.*RWY 15: 6.9 kt HW 1.1 kt RCW
RWY 19: 6.0 kt HW 3.6 kt LCW
RWY 24: 1.1 kt HW 6.9 kt LCW
Visibility9999 m
Phenomena:N/A
Clouds:Overcast 047 Hf
Expected CloudBase > 1,600 ft AGL from Temp-Dew spread
Ceiling4,700 ft
Temp05°C (ISA -6)
Dew Point01°C (76% RH)
AAT0.7°C
QNH995 hPa
Density Alt2,320 ft
Elevation2,267 ft
Report Wrong Elevation
Raw Report
CYXS 181400Z AUTO 18007KT 9SM OVC047 05/01 A2937 RMK SLP964=

Extra information for CYXS:More info

Metar Taf Metar & Taf Last 4 Metars F.Rules Stats Wind Profile Meteogram Temp Stats Airport Information Weather charts Add Link Nearby VenuesMetar ALERT Operation Metar Decoded Social comments